Time;durP1;ratioP1;P1;durP2;ratioP2;P2;SDS_P1;SDS_P2;PMS_P1;PMS_P2;Temp;Humidity;BMP_temperature;BMP_pressure;BME280_temperature;BME280_humidity;BME280_pressure;Samples;Min_cycle;Max_cycle;Signal;HPM_P1;HPM_P2
2021/09/29 00:00:18;;;;;;;1.73;1.58;;;15.30;99.90;;;;;;4927689;28;20432;-87
2021/09/29 00:03:02;;;;;;;2.50;2.03;;;15.30;99.90;;;;;;4940879;28;20445;-90
2021/09/29 00:05:47;;;;;;;1.42;1.33;;;15.20;99.90;;;;;;4940734;28;20409;-88
2021/09/29 00:08:31;;;;;;;1.10;1.10;;;15.20;99.90;;;;;;4928761;28;20425;-92
2021/09/29 00:11:15;;;;;;;3.07;1.63;;;15.30;99.90;;;;;;4955088;28;20409;-89
2021/09/29 00:14:00;;;;;;;1.50;1.40;;;15.30;99.90;;;;;;4955227;28;20446;-84
2021/09/29 00:16:44;;;;;;;2.00;1.90;;;15.30;99.90;;;;;;4948234;28;20415;-88
2021/09/29 00:19:28;;;;;;;2.10;1.63;;;15.30;99.90;;;;;;4957226;28;20932;-87
2021/09/29 00:22:13;;;;;;;1.50;1.40;;;15.30;99.90;;;;;;4945143;28;20414;-88
2021/09/29 00:24:57;;;;;;;1.95;1.83;;;15.30;99.90;;;;;;4954330;28;20499;-89
2021/09/29 00:27:42;;;;;;;1.60;1.50;;;15.30;99.90;;;;;;4958948;28;20424;-87
2021/09/29 00:30:27;;;;;;;1.80;1.70;;;15.30;99.90;;;;;;4947294;28;20416;-88
2021/09/29 00:33:16;;;;;;;1.80;1.70;;;15.30;99.90;;;;;;4954947;28;20437;-91
2021/09/29 00:36:01;;;;;;;1.70;1.60;;;15.30;99.90;;;;;;4967621;28;20845;-88
2021/09/29 00:38:45;;;;;;;2.15;1.50;;;15.30;99.90;;;;;;4949730;28;20447;-88
2021/09/29 00:41:30;;;;;;;1.70;1.60;;;15.30;99.90;;;;;;4966972;28;20409;-92
2021/09/29 00:44:14;;;;;;;1.70;1.60;;;15.40;99.90;;;;;;4927174;28;20413;-91
2021/09/29 00:46:59;;;;;;;2.08;1.90;;;15.30;99.90;;;;;;4949884;28;20426;-89
2021/09/29 00:49:43;;;;;;;2.35;2.15;;;15.30;99.90;;;;;;4964123;28;20562;-87
2021/09/29 00:52:28;;;;;;;1.63;1.52;;;15.40;99.90;;;;;;4946472;28;20430;-90
2021/09/29 00:55:17;;;;;;;3.90;1.85;;;15.40;99.90;;;;;;4945233;28;20430;-86
2021/09/29 00:58:02;;;;;;;1.73;1.63;;;15.40;99.90;;;;;;4967115;28;20433;-87
2021/09/29 01:00:46;;;;;;;2.63;1.90;;;15.40;99.90;;;;;;4921043;28;20465;-85
2021/09/29 01:03:31;;;;;;;1.42;1.33;;;15.40;99.90;;;;;;4940089;28;20452;-87
2021/09/29 01:06:20;;;;;;;2.20;1.90;;;15.40;99.90;;;;;;4921027;28;20411;-85
2021/09/29 01:09:23;;;;;;;3.25;2.00;;;15.30;99.90;;;;;;4959537;28;20841;-89
2021/09/29 01:12:29;;;;;;;1.90;1.80;;;15.30;99.90;;;;;;4949975;28;20448;-90
2021/09/29 01:15:26;;;;;;;2.40;1.70;;;15.20;99.90;;;;;;4967014;28;20774;-91
2021/09/29 01:18:10;;;;;;;1.80;1.70;;;15.20;99.90;;;;;;4956799;28;20434;-92
2021/09/29 01:21:04;;;;;;;3.08;2.28;;;15.30;99.90;;;;;;4967634;28;20460;-89
2021/09/29 01:24:28;;;;;;;1.90;1.80;;;15.30;99.90;;;;;;4952596;28;21036;-90
2021/09/29 01:27:12;;;;;;;1.80;1.70;;;15.20;99.90;;;;;;4962374;28;20421;-90
2021/09/29 01:29:57;;;;;;;1.90;1.80;;;15.10;99.90;;;;;;4953317;28;20408;-92
2021/09/29 01:32:41;;;;;;;1.45;1.35;;;15.20;99.90;;;;;;4938962;28;20513;-90
2021/09/29 01:35:26;;;;;;;1.88;1.77;;;15.20;99.90;;;;;;4940695;28;20489;-90
2021/09/29 01:38:10;;;;;;;3.60;2.00;;;15.20;99.90;;;;;;4940191;28;20405;-92
2021/09/29 01:40:55;;;;;;;1.52;1.42;;;15.20;99.90;;;;;;4934291;28;20461;-90
2021/09/29 01:43:39;;;;;;;1.93;1.83;;;15.10;99.90;;;;;;4967087;28;20408;-90
2021/09/29 01:46:24;;;;;;;1.50;1.40;;;15.10;99.90;;;;;;4952969;28;20425;-90
2021/09/29 01:49:19;;;;;;;1.77;1.67;;;15.10;99.90;;;;;;4966358;28;20424;-90
2021/09/29 01:52:05;;;;;;;1.60;1.50;;;15.20;99.90;;;;;;4967592;28;20449;-90
2021/09/29 01:54:49;;;;;;;1.67;1.58;;;15.20;99.90;;;;;;4952624;28;20417;-91
2021/09/29 01:57:36;;;;;;;2.17;1.75;;;15.20;99.90;;;;;;4940357;28;21046;-86
2021/09/29 02:00:23;;;;;;;2.42;2.03;;;15.20;99.90;;;;;;4948260;28;20413;-88
2021/09/29 02:03:07;;;;;;;2.53;2.05;;;15.20;99.90;;;;;;4930184;28;20476;-92
2021/09/29 02:05:52;;;;;;;2.17;1.90;;;15.10;99.90;;;;;;4934994;28;20421;-88
2021/09/29 02:08:36;;;;;;;2.50;2.30;;;15.10;99.90;;;;;;4950931;28;20786;-90
2021/09/29 02:11:20;;;;;;;3.88;2.30;;;15.10;99.90;;;;;;4950039;28;20433;-92
2021/09/29 02:14:06;;;;;;;2.50;2.30;;;15.00;99.90;;;;;;4942163;28;20474;-86
2021/09/29 02:16:53;;;;;;;4.07;2.38;;;14.90;99.90;;;;;;4961657;28;20441;-88
2021/09/29 02:19:38;;;;;;;2.70;2.50;;;14.90;99.90;;;;;;4951270;28;20432;-89
2021/09/29 02:22:22;;;;;;;2.85;2.47;;;15.00;99.90;;;;;;4948773;28;20473;-88
2021/09/29 02:25:07;;;;;;;3.03;2.72;;;15.00;99.90;;;;;;4966561;28;20397;-89
2021/09/29 02:27:51;;;;;;;3.85;2.85;;;14.90;99.90;;;;;;4956118;28;20425;-88
2021/09/29 02:30:39;;;;;;;3.63;2.90;;;14.90;99.90;;;;;;4986314;28;20429;-90
2021/09/29 02:33:23;;;;;;;4.57;2.55;;;14.90;99.90;;;;;;4934453;28;20437;-92
2021/09/29 02:36:07;;;;;;;2.97;2.72;;;14.90;99.90;;;;;;4953562;28;20417;-88
2021/09/29 02:38:52;;;;;;;3.20;2.65;;;14.90;99.90;;;;;;4938611;28;20475;-91
2021/09/29 02:41:36;;;;;;;3.45;3.15;;;14.90;99.90;;;;;;4967665;28;20425;-90
2021/09/29 02:44:21;;;;;;;3.42;2.85;;;14.90;99.90;;;;;;4940856;28;20505;-90
2021/09/29 02:47:05;;;;;;;3.45;2.95;;;14.80;99.90;;;;;;4964393;28;20444;-88
2021/09/29 02:49:49;;;;;;;3.93;3.57;;;14.90;99.90;;;;;;4962072;28;20477;-90
2021/09/29 02:52:34;;;;;;;4.20;3.38;;;14.80;99.90;;;;;;4981043;28;20438;-90
2021/09/29 02:55:18;;;;;;;5.38;3.70;;;14.80;99.90;;;;;;4939919;28;20461;-90
2021/09/29 02:58:02;;;;;;;3.67;3.28;;;14.90;99.90;;;;;;4959453;28;20421;-91
2021/09/29 03:00:47;;;;;;;5.35;3.60;;;14.80;99.90;;;;;;4938402;28;20532;-87
2021/09/29 03:03:32;;;;;;;2.78;2.58;;;14.80;99.90;;;;;;4977939;28;20417;-87
2021/09/29 03:06:16;;;;;;;5.28;3.70;;;14.80;99.90;;;;;;4950953;28;20433;-88
2021/09/29 03:09:00;;;;;;;3.58;3.28;;;14.90;99.90;;;;;;4982663;28;20488;-89
2021/09/29 03:11:45;;;;;;;4.40;3.97;;;14.90;99.90;;;;;;4948325;28;21024;-85
2021/09/29 03:14:30;;;;;;;3.60;3.30;;;15.00;99.90;;;;;;4958710;28;20412;-86
2021/09/29 03:17:14;;;;;;;4.30;3.90;;;15.00;99.90;;;;;;4938422;28;20405;-90
2021/09/29 03:19:58;;;;;;;4.47;4.03;;;15.00;99.90;;;;;;4978170;28;20488;-90
2021/09/29 03:22:43;;;;;;;4.82;4.43;;;15.00;99.90;;;;;;4945651;28;20417;-88
2021/09/29 03:25:27;;;;;;;4.72;4.32;;;15.00;99.90;;;;;;4941672;28;20401;-87
2021/09/29 03:28:11;;;;;;;4.40;4.00;;;15.00;99.90;;;;;;4930843;28;20391;-88
2021/09/29 03:30:56;;;;;;;4.00;3.70;;;15.00;99.90;;;;;;4931615;28;20427;-90
2021/09/29 03:33:40;;;;;;;4.28;3.88;;;15.00;99.90;;;;;;4935763;28;20445;-91
2021/09/29 03:36:25;;;;;;;4.67;3.63;;;15.00;99.90;;;;;;4926200;28;20469;-86
2021/09/29 03:39:09;;;;;;;3.67;3.38;;;15.00;99.90;;;;;;4957149;28;20995;-89
2021/09/29 03:41:54;;;;;;;4.50;4.00;;;15.10;99.90;;;;;;4958726;28;20409;-89
2021/09/29 03:44:38;;;;;;;3.40;3.10;;;15.10;99.90;;;;;;4953732;28;20476;-88
2021/09/29 03:47:23;;;;;;;3.70;3.40;;;15.00;99.90;;;;;;4940201;28;20433;-84
2021/09/29 03:50:07;;;;;;;4.30;3.90;;;15.10;99.90;;;;;;4966188;28;20445;-86
2021/09/29 03:52:52;;;;;;;4.10;3.80;;;15.00;99.90;;;;;;4953169;28;20412;-88
2021/09/29 03:55:36;;;;;;;3.45;3.15;;;15.00;99.90;;;;;;4941203;28;20405;-85
2021/09/29 03:58:20;;;;;;;3.85;3.55;;;15.00;99.90;;;;;;4946355;28;20405;-90
2021/09/29 04:01:05;;;;;;;4.20;3.78;;;15.00;99.90;;;;;;4949473;28;20998;-90
2021/09/29 04:03:49;;;;;;;3.50;3.20;;;15.00;99.90;;;;;;4937956;28;20456;-88
2021/09/29 04:06:33;;;;;;;3.35;3.05;;;15.00;99.90;;;;;;4924081;28;20404;-87
2021/09/29 04:09:18;;;;;;;3.80;3.40;;;15.00;99.90;;;;;;4951505;28;20460;-87
2021/09/29 04:12:02;;;;;;;3.78;3.38;;;15.20;99.90;;;;;;4968572;28;20412;-85
2021/09/29 04:14:50;;;;;;;3.40;3.10;;;15.00;99.90;;;;;;4953661;28;20437;-89
2021/09/29 04:17:36;;;;;;;3.55;3.25;;;15.00;99.90;;;;;;4949566;28;20484;-88
2021/09/29 04:20:20;;;;;;;3.80;3.40;;;15.00;99.90;;;;;;4967351;28;20414;-87
2021/09/29 04:23:05;;;;;;;3.72;3.33;;;15.00;99.90;;;;;;4967579;28;20517;-90
2021/09/29 04:25:52;;;;;;;3.33;3.03;;;14.90;99.90;;;;;;4972626;28;20547;-87
2021/09/29 04:28:36;;;;;;;3.17;2.90;;;15.00;99.90;;;;;;4945031;28;20494;-91
2021/09/29 04:31:21;;;;;;;4.07;3.22;;;15.00;99.90;;;;;;4946424;28;20399;-87
2021/09/29 04:34:05;;;;;;;4.88;3.67;;;14.90;99.90;;;;;;4969910;28;20449;-87
2021/09/29 04:36:50;;;;;;;3.42;3.13;;;14.90;99.90;;;;;;4944496;28;20614;-88
2021/09/29 04:39:34;;;;;;;3.17;2.93;;;14.90;99.90;;;;;;4969642;28;20430;-88
2021/09/29 04:42:19;;;;;;;3.55;3.25;;;14.90;99.90;;;;;;4943147;28;20417;-86
2021/09/29 04:45:05;;;;;;;4.10;3.25;;;15.00;99.90;;;;;;4940958;28;20410;-89
2021/09/29 04:47:49;;;;;;;3.63;3.30;;;14.90;99.90;;;;;;4956851;28;20407;-88
2021/09/29 04:50:34;;;;;;;4.30;3.90;;;15.00;99.90;;;;;;4941939;28;20399;-85
2021/09/29 04:53:18;;;;;;;3.67;3.38;;;15.00;99.90;;;;;;4942510;28;20432;-89
2021/09/29 04:56:03;;;;;;;4.47;4.00;;;14.90;99.90;;;;;;4942509;28;20466;-85
2021/09/29 04:58:47;;;;;;;4.72;4.22;;;14.90;99.90;;;;;;4945228;28;20438;-86
2021/09/29 05:01:31;;;;;;;6.57;4.50;;;14.90;99.90;;;;;;4955375;28;20409;-84
2021/09/29 05:04:16;;;;;;;7.30;4.45;;;14.90;99.90;;;;;;4949892;28;20501;-86
2021/09/29 05:07:00;;;;;;;5.32;4.63;;;14.90;99.90;;;;;;4942426;28;20465;-87
2021/09/29 05:09:45;;;;;;;5.50;4.75;;;14.90;99.90;;;;;;4938371;28;20533;-83
2021/09/29 05:12:31;;;;;;;5.53;4.13;;;14.90;99.90;;;;;;4938754;28;20453;-83
2021/09/29 05:15:15;;;;;;;5.78;4.47;;;14.90;99.90;;;;;;4952778;28;20546;-86
2021/09/29 05:18:00;;;;;;;6.57;5.05;;;14.90;99.90;;;;;;4941909;28;20580;-91
2021/09/29 05:20:45;;;;;;;6.95;4.97;;;15.00;99.90;;;;;;4932563;28;20427;-90
2021/09/29 05:23:32;;;;;;;6.07;5.05;;;15.00;99.90;;;;;;4953971;28;20515;-90
2021/09/29 05:26:19;;;;;;;5.18;4.22;;;15.00;99.90;;;;;;4958045;28;20413;-91
2021/09/29 05:29:06;;;;;;;7.47;5.63;;;15.00;99.90;;;;;;4972027;28;20425;-90
2021/09/29 05:31:50;;;;;;;9.88;6.47;;;15.10;99.90;;;;;;4960592;28;20420;-90
2021/09/29 05:34:34;;;;;;;9.63;6.60;;;15.10;99.90;;;;;;4957477;28;20465;-90
2021/09/29 05:37:19;;;;;;;9.35;6.45;;;15.00;99.90;;;;;;4960713;28;20408;-90
2021/09/29 05:40:05;;;;;;;6.47;5.80;;;15.10;99.90;;;;;;4970740;28;20401;-91
2021/09/29 05:42:50;;;;;;;8.48;6.28;;;15.10;99.90;;;;;;4945256;28;20381;-93
2021/09/29 05:45:35;;;;;;;8.48;7.18;;;15.10;99.90;;;;;;4968377;28;20386;-87
2021/09/29 05:48:19;;;;;;;8.80;6.70;;;15.10;99.90;;;;;;4956659;28;20410;-87
2021/09/29 05:51:04;;;;;;;10.57;7.43;;;15.10;99.90;;;;;;4944543;28;20426;-91
2021/09/29 05:53:48;;;;;;;10.18;7.28;;;15.10;99.90;;;;;;4966614;28;20429;-87
2021/09/29 05:56:33;;;;;;;11.48;8.38;;;15.20;99.90;;;;;;4965760;28;20443;-88
2021/09/29 05:59:18;;;;;;;8.98;7.10;;;15.20;99.90;;;;;;4958386;28;20458;-87
2021/09/29 06:02:02;;;;;;;11.02;8.05;;;15.20;99.90;;;;;;4983601;28;20410;-89
2021/09/29 06:04:50;;;;;;;10.23;8.43;;;15.20;99.90;;;;;;4941609;28;20654;-91
2021/09/29 06:07:35;;;;;;;11.27;8.13;;;15.20;99.90;;;;;;4945930;28;20437;-85
2021/09/29 06:10:40;;;;;;;13.05;8.18;;;15.30;99.90;;;;;;4928390;28;20393;-89
2021/09/29 06:13:25;;;;;;;9.77;8.02;;;15.30;99.90;;;;;;4960369;28;20415;-90
2021/09/29 06:16:10;;;;;;;14.77;9.02;;;15.30;99.90;;;;;;4957001;28;20438;-90
2021/09/29 06:18:55;;;;;;;12.38;8.52;;;15.30;99.90;;;;;;4956624;28;20417;-91
2021/09/29 06:21:41;;;;;;;11.02;9.38;;;15.30;99.90;;;;;;4942506;28;20405;-88
2021/09/29 06:24:25;;;;;;;12.38;9.95;;;15.30;99.90;;;;;;4947479;28;20414;-90
2021/09/29 06:27:10;;;;;;;14.45;9.32;;;15.30;99.90;;;;;;4947392;28;20519;-90
2021/09/29 06:29:55;;;;;;;13.65;10.30;;;15.30;99.90;;;;;;4948213;28;20431;-90
2021/09/29 06:32:39;;;;;;;9.77;8.43;;;15.40;99.90;;;;;;4939225;28;20408;-91
2021/09/29 06:35:24;;;;;;;10.75;9.20;;;15.30;99.90;;;;;;4952149;28;20396;-92
2021/09/29 06:38:10;;;;;;;11.68;9.35;;;15.40;99.90;;;;;;4949122;28;20397;-92
2021/09/29 06:40:55;;;;;;;17.38;11.43;;;15.50;99.90;;;;;;4953995;28;20782;-88
2021/09/29 06:43:39;;;;;;;13.52;10.45;;;15.50;99.90;;;;;;4945469;28;20462;-90
2021/09/29 06:46:23;;;;;;;13.13;9.70;;;15.50;99.90;;;;;;4940119;28;20416;-91
2021/09/29 06:49:08;;;;;;;11.38;9.32;;;15.60;99.90;;;;;;4957781;28;20409;-91
2021/09/29 06:51:52;;;;;;;16.38;11.20;;;15.60;99.90;;;;;;4954326;28;20440;-91
2021/09/29 06:54:40;;;;;;;11.48;9.65;;;15.60;99.90;;;;;;4948766;28;20499;-90
2021/09/29 06:57:24;;;;;;;14.35;10.25;;;15.60;99.90;;;;;;4968796;28;20389;-89
2021/09/29 07:00:10;;;;;;;14.90;10.73;;;15.70;99.90;;;;;;4964845;28;20396;-88
2021/09/29 07:02:54;;;;;;;11.13;9.52;;;15.70;99.90;;;;;;4949382;28;20409;-90
2021/09/29 07:05:47;;;;;;;10.55;8.13;;;15.80;99.90;;;;;;4936066;28;20475;-89
2021/09/29 07:08:35;;;;;;;12.00;9.48;;;15.90;99.90;;;;;;4931775;28;20417;-89
2021/09/29 07:11:20;;;;;;;9.43;8.03;;;16.00;99.90;;;;;;4941210;28;20399;-89
2021/09/29 07:14:04;;;;;;;8.32;7.28;;;16.00;99.90;;;;;;4964376;28;20421;-87
2021/09/29 07:16:49;;;;;;;11.90;8.00;;;16.20;99.90;;;;;;4943817;28;20428;-89
2021/09/29 07:19:33;;;;;;;7.70;6.90;;;16.20;99.90;;;;;;4944424;28;20469;-89
2021/09/29 07:22:18;;;;;;;8.98;7.53;;;16.20;99.90;;;;;;4943485;28;20433;-89
2021/09/29 07:25:03;;;;;;;9.30;6.90;;;16.30;99.90;;;;;;4945176;28;20445;-91
2021/09/29 07:27:48;;;;;;;7.05;6.28;;;16.40;99.90;;;;;;4947697;28;20385;-90
2021/09/29 07:30:32;;;;;;;7.18;6.47;;;16.40;99.90;;;;;;4955581;28;20389;-90
2021/09/29 07:33:17;;;;;;;8.90;5.57;;;16.50;99.90;;;;;;4950339;28;20516;-90
2021/09/29 07:36:02;;;;;;;5.75;5.15;;;16.60;99.90;;;;;;4939567;28;20397;-87
2021/09/29 07:38:46;;;;;;;7.80;4.90;;;16.50;99.90;;;;;;4930357;28;20557;-89
2021/09/29 07:41:31;;;;;;;5.67;4.57;;;16.50;99.90;;;;;;4964082;28;20416;-86
2021/09/29 07:44:15;;;;;;;4.45;4.00;;;16.60;99.90;;;;;;4939317;28;20812;-88
2021/09/29 07:46:59;;;;;;;5.10;4.03;;;16.60;99.90;;;;;;4950281;28;20403;-90
2021/09/29 07:49:44;;;;;;;4.60;4.13;;;16.70;99.90;;;;;;4948871;28;20398;-90
2021/09/29 07:52:28;;;;;;;3.60;3.30;;;16.70;99.90;;;;;;4942420;28;20882;-87
2021/09/29 07:55:13;;;;;;;8.77;3.90;;;16.80;99.90;;;;;;4944604;28;20403;-85
2021/09/29 07:57:57;;;;;;;4.18;3.78;;;16.80;99.90;;;;;;4967062;28;20496;-91
2021/09/29 08:00:41;;;;;;;4.10;3.70;;;16.90;99.90;;;;;;4973523;28;20403;-90
2021/09/29 08:03:26;;;;;;;3.83;3.42;;;16.90;99.90;;;;;;4956459;28;20541;-86
2021/09/29 08:06:11;;;;;;;3.70;3.40;;;16.90;99.90;;;;;;4943695;28;20519;-89
2021/09/29 08:08:55;;;;;;;3.92;3.22;;;16.90;99.90;;;;;;4942465;28;20425;-89
2021/09/29 08:11:39;;;;;;;3.85;3.55;;;16.90;99.90;;;;;;4951446;28;20426;-88
2021/09/29 08:14:23;;;;;;;4.60;3.42;;;16.90;99.90;;;;;;4942605;28;20411;-88
2021/09/29 08:17:08;;;;;;;4.20;3.53;;;16.90;99.90;;;;;;4944875;28;20413;-91
2021/09/29 08:19:52;;;;;;;5.40;3.72;;;16.90;99.90;;;;;;4947859;28;20397;-86
2021/09/29 08:22:38;;;;;;;5.70;3.90;;;16.80;99.90;;;;;;4951576;28;20431;-88
2021/09/29 08:28:41;;;;;;;4.50;3.70;;;16.80;99.90;;;;;;4970661;28;20413;-92
2021/09/29 08:31:34;;;;;;;4.80;3.90;;;16.90;99.90;;;;;;4952095;28;20458;-89
2021/09/29 08:34:33;;;;;;;4.30;3.05;;;16.90;99.90;;;;;;4960680;28;20431;-89
2021/09/29 08:37:27;;;;;;;5.97;3.40;;;17.00;99.90;;;;;;4966729;28;20425;-90
2021/09/29 08:40:25;;;;;;;4.85;3.55;;;17.20;99.90;;;;;;4949268;28;20417;-88
2021/09/29 08:43:20;;;;;;;5.10;3.30;;;17.20;99.90;;;;;;4947205;28;20416;-90
2021/09/29 08:46:15;;;;;;;4.00;3.20;;;17.20;99.90;;;;;;4949774;28;20393;-90
2021/09/29 08:49:15;;;;;;;4.93;3.45;;;17.30;99.90;;;;;;4960255;28;20397;-91
2021/09/29 08:52:28;;;;;;;2.92;2.72;;;17.40;99.90;;;;;;4954167;28;20433;-90
2021/09/29 09:14:42;;;;;;;4.07;3.10;;;17.40;99.90;;;;;;4978869;28;20407;-91
2021/09/29 09:16:57;;;;;;;3.40;2.95;;;17.30;99.90;;;;;;4973790;28;20530;-91
2021/09/29 09:19:42;;;;;;;3.85;2.97;;;17.40;99.90;;;;;;4947957;28;20402;-91
2021/09/29 09:22:33;;;;;;;3.60;3.10;;;17.40;99.90;;;;;;4958574;28;20500;-91
2021/09/29 09:25:38;;;;;;;4.05;3.05;;;17.30;99.90;;;;;;4942507;28;20460;-92
2021/09/29 09:28:29;;;;;;;6.45;3.30;;;17.50;99.90;;;;;;4970201;28;20438;-91
2021/09/29 09:31:19;;;;;;;3.97;2.93;;;17.50;99.90;;;;;;4968862;28;20388;-92
2021/09/29 09:34:07;;;;;;;6.75;3.60;;;17.50;99.90;;;;;;4950573;28;20408;-91
2021/09/29 09:36:56;;;;;;;4.18;3.40;;;17.40;99.90;;;;;;4982487;28;20577;-89
2021/09/29 09:39:46;;;;;;;4.18;3.53;;;17.30;99.90;;;;;;4972921;28;20408;-90
2021/09/29 09:43:00;;;;;;;3.20;2.90;;;17.50;99.90;;;;;;4940346;28;20441;-91
2021/09/29 09:45:48;;;;;;;4.20;3.05;;;17.70;99.90;;;;;;4959288;28;20507;-90
2021/09/29 09:48:33;;;;;;;4.78;3.42;;;18.10;99.90;;;;;;4946899;28;20402;-91
2021/09/29 09:51:18;;;;;;;4.35;3.67;;;18.30;99.90;;;;;;4956334;28;20546;-87
2021/09/29 09:54:03;;;;;;;3.03;2.65;;;18.10;99.90;;;;;;4956130;28;20437;-86
2021/09/29 09:56:53;;;;;;;3.83;3.42;;;18.20;99.90;;;;;;4942017;28;20487;-89
2021/09/29 09:59:37;;;;;;;3.08;2.80;;;18.10;99.90;;;;;;4967104;28;20410;-86
2021/09/29 10:02:21;;;;;;;3.78;3.10;;;18.20;99.90;;;;;;4952740;28;21003;-89
2021/09/29 10:05:09;;;;;;;4.07;2.85;;;18.20;99.90;;;;;;4952577;28;20428;-90
2021/09/29 10:07:53;;;;;;;3.45;2.92;;;18.10;99.90;;;;;;4916381;28;21545;-91
2021/09/29 10:26:24;;;;;;;3.50;3.20;;;18.40;99.90;;;;;;4988980;28;20399;-91
2021/09/29 10:29:11;;;;;;;2.58;2.38;;;18.30;99.90;;;;;;4964929;28;20392;-91
2021/09/29 10:32:27;;;;;;;3.05;2.85;;;18.30;99.90;;;;;;4946566;28;20439;-91
2021/09/29 11:29:20;;;;;;;5.10;4.30;;;18.20;99.90;;;;;;4991396;28;20407;-91
2021/09/29 12:27:55;;;;;;;3.50;3.20;;;17.80;99.90;;;;;;884660;23;20695;-92
2021/09/29 12:30:43;;;;;;;5.30;4.80;;;17.80;99.90;;;;;;4965826;28;20522;-89
2021/09/29 12:36:39;;;;;;;7.43;4.18;;;17.40;99.90;;;;;;4975236;28;20488;-89
2021/09/29 12:39:25;;;;;;;5.03;3.70;;;17.30;99.90;;;;;;4963264;28;20411;-92
2021/09/29 12:42:32;;;;;;;3.50;3.20;;;17.20;99.90;;;;;;4969551;28;20399;-92
2021/09/29 12:45:16;;;;;;;6.13;4.75;;;17.20;99.90;;;;;;4968557;28;20424;-89
2021/09/29 12:48:02;;;;;;;3.97;3.67;;;17.30;99.90;;;;;;4990663;28;20387;-90
2021/09/29 12:50:54;;;;;;;4.60;4.20;;;17.10;99.90;;;;;;4966550;28;20451;-89
2021/09/29 12:53:48;;;;;;;4.13;3.72;;;17.10;99.90;;;;;;4961024;28;20437;-91
2021/09/29 12:56:32;;;;;;;4.93;4.50;;;17.20;99.90;;;;;;4967040;28;20380;-91
2021/09/29 12:59:16;;;;;;;4.32;3.90;;;17.10;99.90;;;;;;4966006;28;20397;-91
2021/09/29 13:02:01;;;;;;;3.97;3.67;;;17.20;99.90;;;;;;4970577;28;20472;-93
2021/09/29 13:14:05;;;;;;;4.90;4.40;;;17.10;99.90;;;;;;835535;23;20728;-89
2021/09/29 13:16:49;;;;;;;6.60;5.10;;;17.10;99.90;;;;;;5001007;28;20420;-93
2021/09/29 15:11:21;;;;;;;4.38;4.03;;;17.70;99.90;;;;;;4976403;28;20405;-86
2021/09/29 15:14:11;;;;;;;3.63;3.33;;;17.80;99.90;;;;;;4946003;28;20428;-92
2021/09/29 15:17:57;;;;;;;5.17;4.67;;;17.90;99.90;;;;;;4959694;28;20391;-89
2021/09/29 16:06:46;;;;;;;3.67;3.38;;;17.90;99.90;;;;;;4984865;28;20437;-92
2021/09/29 16:18:45;;;;;;;2.67;2.47;;;17.70;99.90;;;;;;4987224;28;20413;-93
2021/09/29 16:31:09;;;;;;;2.00;1.90;;;17.60;99.90;;;;;;4967943;28;20393;-92
2021/09/29 16:36:58;;;;;;;2.38;2.17;;;17.40;99.90;;;;;;4970342;28;20437;-93
2021/09/29 16:39:44;;;;;;;2.50;2.30;;;17.20;99.90;;;;;;4965728;28;20409;-92
2021/09/29 16:42:28;;;;;;;1.88;1.77;;;17.10;99.90;;;;;;4976310;28;20514;-87
2021/09/29 16:45:13;;;;;;;2.50;2.40;;;17.00;99.90;;;;;;4945529;28;20457;-91
2021/09/29 16:48:05;;;;;;;2.15;2.00;;;16.90;99.90;;;;;;4962407;28;20434;-91
2021/09/29 16:53:49;;;;;;;2.05;1.95;;;16.70;99.90;;;;;;4972607;28;20417;-92
2021/09/29 16:56:41;;;;;;;2.42;2.20;;;16.70;99.90;;;;;;4967839;28;20395;-93
2021/09/29 16:59:40;;;;;;;2.70;2.50;;;16.50;99.90;;;;;;4964393;28;20429;-91
2021/09/29 17:02:28;;;;;;;2.42;2.30;;;16.50;99.90;;;;;;4964278;28;20464;-90
2021/09/29 17:05:23;;;;;;;2.92;2.72;;;16.40;99.90;;;;;;4964184;28;20407;-91
2021/09/29 17:08:09;;;;;;;2.75;2.50;;;16.30;99.90;;;;;;4979243;28;20422;-92
2021/09/29 17:10:54;;;;;;;2.70;2.50;;;16.30;99.90;;;;;;4954991;28;20421;-92
2021/09/29 17:13:43;;;;;;;3.20;3.00;;;16.20;99.90;;;;;;4961428;28;20516;-90
2021/09/29 17:16:28;;;;;;;2.83;2.63;;;16.10;99.90;;;;;;4952338;28;20478;-91
2021/09/29 17:19:12;;;;;;;2.90;2.70;;;16.10;99.90;;;;;;4934694;28;20420;-90
2021/09/29 17:21:58;;;;;;;4.07;3.75;;;15.90;99.90;;;;;;4968297;28;20425;-92
2021/09/29 17:24:44;;;;;;;4.35;3.95;;;15.90;99.90;;;;;;4971219;28;20417;-93
2021/09/29 17:27:29;;;;;;;3.92;3.63;;;15.70;99.90;;;;;;4968610;28;20404;-92
2021/09/29 17:30:14;;;;;;;4.35;3.97;;;15.70;99.90;;;;;;4952496;28;20431;-90
2021/09/29 17:36:31;;;;;;;3.60;3.30;;;15.40;99.90;;;;;;4941762;28;20447;-90
2021/09/29 17:39:45;;;;;;;2.93;2.73;;;15.40;99.90;;;;;;4920134;28;20539;-90
2021/09/29 17:53:00;;;;;;;4.05;3.42;;;15.30;99.90;;;;;;4976177;28;20425;-90
2021/09/29 17:55:48;;;;;;;4.22;3.90;;;15.10;99.90;;;;;;4969157;28;20414;-92
2021/09/29 19:23:51;;;;;;;2.00;1.80;;;14.70;99.90;;;;;;4982891;28;20413;-88
2021/09/29 20:52:00;;;;;;;0.60;0.60;;;12.70;99.90;;;;;;3822190;23;20439;-87
2021/09/29 20:54:44;;;;;;;0.70;0.70;;;12.60;99.90;;;;;;5007932;28;20425;-89
2021/09/29 20:57:29;;;;;;;0.40;0.40;;;12.50;99.90;;;;;;4991921;28;20427;-88
2021/09/29 21:00:14;;;;;;;0.63;0.60;;;12.60;99.90;;;;;;4982107;28;20505;-88
2021/09/29 21:02:58;;;;;;;0.60;0.60;;;12.40;99.90;;;;;;4975639;28;20405;-89
2021/09/29 21:05:43;;;;;;;0.50;0.50;;;12.40;99.90;;;;;;4971097;28;20408;-89
2021/09/29 21:08:31;;;;;;;0.60;0.60;;;12.40;99.90;;;;;;4975708;28;20445;-85
2021/09/29 21:11:26;;;;;;;0.60;0.60;;;12.30;99.90;;;;;;4978063;28;20460;-89
2021/09/29 21:14:13;;;;;;;0.50;0.50;;;12.40;99.90;;;;;;4984938;28;20405;-86
2021/09/29 21:20:02;;;;;;;1.02;0.63;;;12.30;99.90;;;;;;4978051;28;20424;-85
2021/09/29 21:22:47;;;;;;;1.05;0.70;;;12.30;99.90;;;;;;4972225;28;20926;-87
2021/09/29 21:25:31;;;;;;;0.60;0.60;;;12.20;99.90;;;;;;4963915;28;20419;-85
2021/09/29 21:28:17;;;;;;;0.70;0.60;;;12.20;99.90;;;;;;4987693;28;20696;-88
2021/09/29 21:31:01;;;;;;;0.80;0.80;;;12.20;99.90;;;;;;4991439;28;20419;-85
2021/09/29 21:33:52;;;;;;;0.40;0.40;;;12.10;99.90;;;;;;4991678;28;20675;-85
2021/09/29 21:36:37;;;;;;;0.50;0.50;;;12.10;99.90;;;;;;4977094;28;20449;-86
2021/09/29 21:39:39;;;;;;;0.70;0.70;;;12.10;99.90;;;;;;4981037;28;20396;-88
2021/09/29 21:42:54;;;;;;;0.50;0.50;;;12.10;99.90;;;;;;4956623;28;20417;-86
2021/09/29 22:01:03;;;;;;;0.60;0.60;;;12.20;99.90;;;;;;4972837;28;20423;-88
2021/09/29 22:13:05;;;;;;;1.50;0.80;;;12.30;99.90;;;;;;4983494;28;20432;-87
2021/09/29 22:43:19;;;;;;;0.60;0.60;;;11.90;99.90;;;;;;4986177;28;20421;-87
2021/09/29 23:04:43;;;;;;;0.60;0.60;;;11.50;99.90;;;;;;4973122;28;20528;-88
2021/09/29 23:07:39;;;;;;;0.60;0.60;;;11.40;99.90;;;;;;4988647;28;20403;-87
2021/09/29 23:10:35;;;;;;;0.70;0.70;;;11.30;99.90;;;;;;4974888;28;20388;-86
2021/09/29 23:22:49;;;;;;;0.77;0.77;;;11.10;99.90;;;;;;4970186;28;20467;-86
2021/09/29 23:34:49;;;;;;;2.10;0.80;;;10.80;99.90;;;;;;4952962;28;20429;-85
2021/09/29 23:37:37;;;;;;;0.70;0.70;;;10.80;99.90;;;;;;4993929;28;20477;-88
2021/09/29 23:40:47;;;;;;;0.63;0.63;;;10.80;99.90;;;;;;4999532;28;20388;-88
2021/09/29 23:43:31;;;;;;;0.70;0.70;;;10.80;99.90;;;;;;4962179;28;20415;-88
2021/09/29 23:46:19;;;;;;;0.70;0.70;;;10.80;99.90;;;;;;4958269;28;20434;-87
2021/09/29 23:55:05;;;;;;;0.73;0.73;;;10.60;99.90;;;;;;5152836;23;20801;-81
